aviador You're here:

WBKL Decoded Metar

LABUAN in MALAYSIA
Report Time2017-11-23 22:00:00
UTC Time2017-11-23 22:25:23
Flight Rules vfr VFR
Wind050° at 03 kt
W.Decomp.*RWY 14: 3 kt LCW
W.Rank050° ranks 20
Current wind is below 050° avg. (3.5)
Visibility9999 m
Phenomena:N/A
Clouds:Few 012 Hf
Broken 300 Hf
Expected CloudBase > 1,200 ft AGL from Temp-Dew spread
Ceiling30,000 ft
Temp27°C (ISA +12)
Dew Point24°C (84% RH)
Heat Index30.1°C
QNH1006 hPa
Density Alt2,133 ft
Elevation98 ft
Report Wrong Elevation
Raw Report
METAR WBKL 232200Z 05003KT 9999 FEW012 BKN300 27/24 Q1006=

Extra information for WBKL:More info

Metar Taf Metar & Taf Last 4 Metars F.Rules Stats Wind Profile Meteogram Temp Stats Airport Information Weather charts Add Link Nearby VenuesMetar ALERT Operation Metar Decoded Social comments